This is the latest recevied weather packets stored in our database for station/object SP5IZJ-2. If no packets are shown the sender has not sent any weather packets the latest 10 day(s).
| Time | Temp. | Humidity | Pressure | Rain* | Wind** | Luminosity | Snow |
|---|---|---|---|---|---|---|---|
| 1777742079 | 27.78° C | 24% | 1011.7 hPa | 0 mm | - | - | - |
| 1777741654 | 28.33° C | 23% | 1011.7 hPa | 0 mm | - | - | - |
| 1777741235 | 28.89° C | 23% | 1011.7 hPa | 0 mm | - | - | - |
| 1777740395 | 29.44° C | 22% | 1011.6 hPa | 0 mm | - | - | - |
| 1777739984 | 29.44° C | 22% | 1011.7 hPa | 0 mm | - | - | - |
| 1777739555 | 30° C | 22% | 1011.7 hPa | 0 mm | - | - | - |
| 1777737043 | 31.67° C | 21% | 1012.4 hPa | 0 mm | - | - | - |
| 1777736641 | 31.11° C | 21% | 1012.5 hPa | 0 mm | - | - | - |
| 1777734939 | 30.56° C | 22% | 1012.5 hPa | 0 mm | - | - | - |
| 1777732418 | 32.22° C | 21% | 1013 hPa | 0 mm | - | - | - |
| 1777730741 | 30.56° C | 22% | 1013.4 hPa | 0 mm | - | - | - |
| 1777726541 | 27.78° C | 26% | 1014.4 hPa | 0 mm | - | - | - |
| 1777717729 | 26.11° C | 28% | 1016 hPa | 0 mm | - | - | - |
| 1777714790 | 25.56° C | 30% | 1016.6 hPa | 0 mm | - | - | - |
| 1777713535 | 25.56° C | 30% | 1016.6 hPa | 0 mm | - | - | - |
| 1777713106 | 25° C | 30% | 1016.9 hPa | 0 mm | - | - | - |
| 1777705969 | 19.44° C | 43% | 1017.3 hPa | 0 mm | - | - | - |
| 1777704712 | 17.22° C | 51% | 1017.3 hPa | 0 mm | - | - | - |
| 1777703453 | 16.11° C | 49% | 1017.5 hPa | 0 mm | - | - | - |
| 1777701773 | 16.67° C | 50% | 1017.2 hPa | 0 mm | - | - | - |
| 1777701356 | 16.11° C | 51% | 1017.3 hPa | 0 mm | - | - | - |
| 1777700529 | 16.11° C | 52% | 1017.5 hPa | 0 mm | - | - | - |
| 1777700092 | 16.11° C | 51% | 1017.5 hPa | 0 mm | - | - | - |
| 1777698832 | 16.11° C | 56% | 1017.4 hPa | 0 mm | - | - | - |
| 1777697575 | 14.44° C | 61% | 1017.4 hPa | 0 mm | - | - | - |
* Rain latest hour (hover to see other rain measurements)
** Current wind speed in m/s (hover to see current wind gust speed)